KLM35B EHAM-EGLL
Flight info
| Callsign | KLM35B |
|---|---|
| Flight time | 0h 39m |
| Altitude | 24000 |
| Route | IDRID L980 LOGAN |
| Aircraft | B77W/H-SDE1E2E3FGHIJ2J3J4J5M1RWXY/LB1D1 |
Departure
| Time | 2026-04-17 11:02 |
|---|---|
| Airport | Amsterdam Airport Schiphol (EHAM) |
Arrival
| Time | 2026-04-17 11:41 |
|---|---|
| Airport | London Heathrow Airport (EGLL) |
| Time | Latitude | Longitude | Altitude | Speed | Heading |
|---|---|---|---|---|---|
| 2026-04-17 10:36 | 52.31379 | 4.76288 | 5 ft | 0 kts | 206° |
| 2026-04-17 10:50 | 52.31380 | 4.76289 | 5 ft | 1 kts | 206° |
| 2026-04-17 10:50 | 52.31393 | 4.76300 | 5 ft | 2 kts | 200° |
| 2026-04-17 10:51 | 52.31408 | 4.76304 | 5 ft | 2 kts | 178° |
| 2026-04-17 10:51 | 52.31422 | 4.76300 | 5 ft | 2 kts | 160° |
| 2026-04-17 10:51 | 52.31436 | 4.76289 | 5 ft | 2 kts | 142° |
| 2026-04-17 10:51 | 52.31446 | 4.76272 | 5 ft | 2 kts | 124° |
| 2026-04-17 10:52 | 52.31453 | 4.76250 | 5 ft | 2 kts | 106° |
| 2026-04-17 10:52 | 52.31456 | 4.76227 | 5 ft | 2 kts | 89° |
| 2026-04-17 10:52 | 52.31454 | 4.76202 | 5 ft | 2 kts | 84° |
| 2026-04-17 10:52 | 52.31454 | 4.76193 | 5 ft | 0 kts | 85° |
| 2026-04-17 10:55 | 52.31455 | 4.76219 | 5 ft | 5 kts | 85° |
| 2026-04-17 10:56 | 52.31460 | 4.76315 | 5 ft | 11 kts | 88° |
| 2026-04-17 10:56 | 52.31463 | 4.76456 | 5 ft | 12 kts | 88° |
| 2026-04-17 10:56 | 52.31466 | 4.76600 | 5 ft | 12 kts | 88° |
| 2026-04-17 10:56 | 52.31471 | 4.76744 | 5 ft | 12 kts | 86° |
| 2026-04-17 10:57 | 52.31477 | 4.76886 | 5 ft | 12 kts | 86° |
| 2026-04-17 10:57 | 52.31483 | 4.77029 | 5 ft | 12 kts | 86° |
| 2026-04-17 10:57 | 52.31468 | 4.77166 | 5 ft | 12 kts | 117° |
| 2026-04-17 10:57 | 52.31416 | 4.77278 | 5 ft | 12 kts | 130° |
| 2026-04-17 10:58 | 52.31361 | 4.77383 | 5 ft | 12 kts | 131° |
| 2026-04-17 10:58 | 52.31300 | 4.77474 | 5 ft | 11 kts | 155° |
| 2026-04-17 10:58 | 52.31221 | 4.77502 | 5 ft | 11 kts | 180° |
| 2026-04-17 10:58 | 52.31124 | 4.77497 | 5 ft | 16 kts | 182° |
| 2026-04-17 10:59 | 52.30998 | 4.77485 | 5 ft | 20 kts | 184° |
| 2026-04-17 10:59 | 52.30861 | 4.77469 | 5 ft | 18 kts | 184° |
| 2026-04-17 10:59 | 52.30737 | 4.77456 | 5 ft | 12 kts | 183° |
| 2026-04-17 10:59 | 52.30672 | 4.77464 | 5 ft | 9 kts | 161° |
| 2026-04-17 11:00 | 52.30613 | 4.77509 | 5 ft | 9 kts | 154° |
| 2026-04-17 11:00 | 52.30554 | 4.77557 | 5 ft | 9 kts | 153° |
| 2026-04-17 11:00 | 52.30493 | 4.77608 | 5 ft | 9 kts | 153° |
| 2026-04-17 11:00 | 52.30442 | 4.77640 | 5 ft | 6 kts | 180° |
| 2026-04-17 11:01 | 52.30403 | 4.77602 | 5 ft | 7 kts | 231° |
| 2026-04-17 11:01 | 52.30335 | 4.77434 | 5 ft | 44 kts | 238° |
| 2026-04-17 11:01 | 52.30021 | 4.76614 | 5 ft | 123 kts | 238° |
| 2026-04-17 11:01 | 52.29452 | 4.75119 | 120 ft | 177 kts | 236° |
| 2026-04-17 11:02 | 52.28780 | 4.73387 | 800 ft | 190 kts | 236° |
| 2026-04-17 11:02 | 52.28049 | 4.71512 | 1631 ft | 201 kts | 236° |
| 2026-04-17 11:02 | 52.27236 | 4.69582 | 2300 ft | 214 kts | 228° |
| 2026-04-17 11:02 | 52.26168 | 4.67933 | 3125 ft | 218 kts | 221° |
| 2026-04-17 11:03 | 52.25063 | 4.66254 | 3930 ft | 224 kts | 224° |
| 2026-04-17 11:03 | 52.24003 | 4.64286 | 4616 ft | 237 kts | 237° |
| 2026-04-17 11:03 | 52.23351 | 4.61753 | 5172 ft | 256 kts | 257° |
| 2026-04-17 11:03 | 52.23050 | 4.58875 | 5986 ft | 261 kts | 255° |
| 2026-04-17 11:04 | 52.22521 | 4.56077 | 6958 ft | 262 kts | 250° |
| 2026-04-17 11:04 | 52.21926 | 4.53289 | 7856 ft | 264 kts | 250° |
| 2026-04-17 11:04 | 52.21332 | 4.50495 | 8705 ft | 267 kts | 250° |
| 2026-04-17 11:04 | 52.20729 | 4.47639 | 9570 ft | 268 kts | 250° |
| 2026-04-17 11:05 | 52.20131 | 4.44799 | 10395 ft | 272 kts | 250° |
| 2026-04-17 11:05 | 52.19502 | 4.41815 | 10942 ft | 288 kts | 250° |
| 2026-04-17 11:05 | 52.18834 | 4.38653 | 11430 ft | 304 kts | 250° |
| 2026-04-17 11:05 | 52.18128 | 4.35312 | 12014 ft | 321 kts | 250° |
| 2026-04-17 11:06 | 52.17389 | 4.31821 | 12693 ft | 334 kts | 250° |
| 2026-04-17 11:06 | 52.16628 | 4.28230 | 13642 ft | 339 kts | 250° |
| 2026-04-17 11:06 | 52.15861 | 4.24622 | 14728 ft | 343 kts | 250° |
| 2026-04-17 11:06 | 52.15089 | 4.20992 | 15873 ft | 347 kts | 250° |
| 2026-04-17 11:07 | 52.14301 | 4.17294 | 17013 ft | 350 kts | 250° |
| 2026-04-17 11:07 | 52.13508 | 4.13582 | 18000 ft | 356 kts | 249° |
| 2026-04-17 11:07 | 52.12680 | 4.09714 | 18967 ft | 364 kts | 250° |
| 2026-04-17 11:07 | 52.11855 | 4.05867 | 19987 ft | 368 kts | 250° |
| 2026-04-17 11:08 | 52.11010 | 4.01938 | 21033 ft | 372 kts | 250° |
| 2026-04-17 11:08 | 52.10158 | 3.97977 | 21961 ft | 377 kts | 250° |
| 2026-04-17 11:08 | 52.09291 | 3.93954 | 22908 ft | 381 kts | 250° |
| 2026-04-17 11:08 | 52.08413 | 3.89895 | 23790 ft | 384 kts | 251° |
| 2026-04-17 11:09 | 52.07535 | 3.85837 | 24163 ft | 384 kts | 251° |
| 2026-04-17 11:09 | 52.06641 | 3.81714 | 24194 ft | 383 kts | 251° |
| 2026-04-17 11:09 | 52.05764 | 3.77681 | 24193 ft | 381 kts | 251° |
| 2026-04-17 11:10 | 52.03994 | 3.69561 | 24194 ft | 381 kts | 251° |
| 2026-04-17 11:10 | 52.03108 | 3.65506 | 24202 ft | 381 kts | 251° |
| 2026-04-17 11:10 | 52.02227 | 3.61485 | 24201 ft | 380 kts | 251° |
| 2026-04-17 11:10 | 52.01346 | 3.57469 | 24196 ft | 380 kts | 250° |
| 2026-04-17 11:11 | 52.00455 | 3.53418 | 24199 ft | 379 kts | 250° |
| 2026-04-17 11:11 | 51.99377 | 3.49498 | 24199 ft | 381 kts | 242° |
| 2026-04-17 11:11 | 51.97942 | 3.45917 | 24201 ft | 380 kts | 236° |
| 2026-04-17 11:11 | 51.96387 | 3.42455 | 24201 ft | 381 kts | 235° |
| 2026-04-17 11:12 | 51.94826 | 3.39002 | 24197 ft | 381 kts | 235° |
| 2026-04-17 11:12 | 51.93265 | 3.35551 | 24197 ft | 381 kts | 235° |
| 2026-04-17 11:12 | 51.91699 | 3.32096 | 24204 ft | 381 kts | 234° |
| 2026-04-17 11:12 | 51.90140 | 3.28661 | 24204 ft | 380 kts | 234° |
| 2026-04-17 11:13 | 51.88577 | 3.25221 | 24200 ft | 379 kts | 234° |
| 2026-04-17 11:13 | 51.87024 | 3.21751 | 24203 ft | 381 kts | 238° |
| 2026-04-17 11:13 | 51.85750 | 3.18006 | 24202 ft | 380 kts | 246° |
| 2026-04-17 11:13 | 51.84874 | 3.13972 | 24206 ft | 379 kts | 255° |
| 2026-04-17 11:14 | 51.84415 | 3.09806 | 24205 ft | 378 kts | 262° |
| 2026-04-17 11:14 | 51.84143 | 3.05595 | 24205 ft | 380 kts | 263° |
| 2026-04-17 11:14 | 51.83875 | 3.01342 | 24201 ft | 380 kts | 263° |
| 2026-04-17 11:14 | 51.83606 | 2.97136 | 24203 ft | 379 kts | 263° |
| 2026-04-17 11:15 | 51.83332 | 2.92896 | 24203 ft | 379 kts | 263° |
| 2026-04-17 11:15 | 51.83054 | 2.88645 | 24200 ft | 379 kts | 263° |
| 2026-04-17 11:15 | 51.82777 | 2.84453 | 24196 ft | 379 kts | 263° |
| 2026-04-17 11:15 | 51.82495 | 2.80216 | 24204 ft | 379 kts | 263° |
| 2026-04-17 11:16 | 51.82213 | 2.76008 | 24194 ft | 378 kts | 262° |
| 2026-04-17 11:16 | 51.81928 | 2.71783 | 24194 ft | 379 kts | 263° |
| 2026-04-17 11:16 | 51.81638 | 2.67517 | 24192 ft | 379 kts | 263° |
| 2026-04-17 11:16 | 51.81352 | 2.63326 | 24199 ft | 380 kts | 262° |
| 2026-04-17 11:17 | 51.81059 | 2.59070 | 24188 ft | 379 kts | 262° |
| 2026-04-17 11:17 | 51.80765 | 2.54839 | 24184 ft | 378 kts | 262° |
| 2026-04-17 11:17 | 51.80473 | 2.50646 | 24193 ft | 379 kts | 262° |
| 2026-04-17 11:17 | 51.80177 | 2.46418 | 24190 ft | 380 kts | 262° |
| 2026-04-17 11:18 | 51.79877 | 2.42163 | 24189 ft | 379 kts | 262° |
| 2026-04-17 11:18 | 51.79582 | 2.37990 | 24187 ft | 379 kts | 262° |
| 2026-04-17 11:18 | 51.79282 | 2.33782 | 24183 ft | 378 kts | 262° |
| 2026-04-17 11:18 | 51.78979 | 2.29550 | 24192 ft | 379 kts | 262° |
| 2026-04-17 11:19 | 51.78676 | 2.25327 | 24192 ft | 379 kts | 262° |
| 2026-04-17 11:19 | 51.78374 | 2.21104 | 24192 ft | 379 kts | 262° |
| 2026-04-17 11:19 | 51.78129 | 2.16976 | 24188 ft | 379 kts | 263° |
| 2026-04-17 11:19 | 51.77881 | 2.12633 | 24187 ft | 379 kts | 263° |
| 2026-04-17 11:20 | 51.77636 | 2.08387 | 24187 ft | 379 kts | 263° |
| 2026-04-17 11:20 | 51.77389 | 2.04175 | 24178 ft | 378 kts | 263° |
| 2026-04-17 11:20 | 51.77138 | 1.99936 | 24186 ft | 380 kts | 262° |
| 2026-04-17 11:20 | 51.76884 | 1.95688 | 24182 ft | 379 kts | 263° |
| 2026-04-17 11:21 | 51.76632 | 1.91495 | 24185 ft | 379 kts | 262° |
| 2026-04-17 11:21 | 51.76374 | 1.87240 | 24180 ft | 379 kts | 263° |
| 2026-04-17 11:21 | 51.76154 | 1.83625 | 24180 ft | 378 kts | 263° |
| 2026-04-17 11:21 | 51.75895 | 1.79405 | 24184 ft | 377 kts | 263° |
| 2026-04-17 11:22 | 51.75638 | 1.75239 | 24178 ft | 378 kts | 262° |
| 2026-04-17 11:22 | 51.75374 | 1.70990 | 24174 ft | 377 kts | 262° |
| 2026-04-17 11:22 | 51.75111 | 1.66779 | 24181 ft | 377 kts | 262° |
| 2026-04-17 11:22 | 51.74849 | 1.62608 | 24170 ft | 376 kts | 262° |
| 2026-04-17 11:23 | 51.74584 | 1.58423 | 24083 ft | 376 kts | 262° |
| 2026-04-17 11:23 | 51.74319 | 1.54258 | 23498 ft | 379 kts | 262° |
| 2026-04-17 11:23 | 51.74049 | 1.50045 | 22908 ft | 378 kts | 262° |
| 2026-04-17 11:23 | 51.73779 | 1.45837 | 22379 ft | 374 kts | 262° |
| 2026-04-17 11:24 | 51.73512 | 1.41700 | 21868 ft | 370 kts | 262° |
| 2026-04-17 11:24 | 51.73248 | 1.37644 | 21373 ft | 367 kts | 262° |
| 2026-04-17 11:24 | 51.72980 | 1.33554 | 20877 ft | 363 kts | 262° |
| 2026-04-17 11:24 | 51.72718 | 1.29568 | 20399 ft | 359 kts | 262° |
| 2026-04-17 11:25 | 51.72455 | 1.25591 | 19909 ft | 357 kts | 262° |
| 2026-04-17 11:25 | 51.72190 | 1.21603 | 19422 ft | 356 kts | 262° |
| 2026-04-17 11:25 | 51.71926 | 1.17660 | 18925 ft | 355 kts | 262° |
| 2026-04-17 11:25 | 51.71663 | 1.13738 | 18451 ft | 353 kts | 262° |
| 2026-04-17 11:26 | 51.71399 | 1.09834 | 17983 ft | 351 kts | 262° |
| 2026-04-17 11:26 | 51.71139 | 1.05999 | 17516 ft | 349 kts | 262° |
| 2026-04-17 11:26 | 51.70873 | 1.02097 | 17038 ft | 347 kts | 262° |
| 2026-04-17 11:26 | 51.70611 | 0.98267 | 16553 ft | 344 kts | 262° |
| 2026-04-17 11:27 | 51.70350 | 0.94473 | 16093 ft | 341 kts | 262° |
| 2026-04-17 11:27 | 51.70097 | 0.90819 | 15681 ft | 339 kts | 262° |
| 2026-04-17 11:27 | 51.69839 | 0.87114 | 15267 ft | 338 kts | 262° |
| 2026-04-17 11:27 | 51.69577 | 0.83364 | 14837 ft | 336 kts | 262° |
| 2026-04-17 11:28 | 51.69317 | 0.79640 | 14430 ft | 334 kts | 262° |
| 2026-04-17 11:28 | 51.69053 | 0.75900 | 14024 ft | 333 kts | 262° |
| 2026-04-17 11:28 | 51.68793 | 0.72230 | 13603 ft | 330 kts | 262° |
| 2026-04-17 11:28 | 51.68532 | 0.68553 | 13164 ft | 329 kts | 262° |
| 2026-04-17 11:29 | 51.68274 | 0.64948 | 12770 ft | 325 kts | 262° |
| 2026-04-17 11:29 | 51.68015 | 0.61337 | 12368 ft | 321 kts | 262° |
| 2026-04-17 11:29 | 51.67606 | 0.57888 | 11944 ft | 313 kts | 248° |
| 2026-04-17 11:29 | 51.66523 | 0.54916 | 11564 ft | 305 kts | 233° |
| 2026-04-17 11:30 | 51.65228 | 0.52282 | 11216 ft | 298 kts | 232° |
| 2026-04-17 11:30 | 51.63932 | 0.49722 | 10900 ft | 290 kts | 232° |
| 2026-04-17 11:30 | 51.62687 | 0.47273 | 10519 ft | 284 kts | 232° |
| 2026-04-17 11:30 | 51.61450 | 0.44847 | 10179 ft | 274 kts | 232° |
| 2026-04-17 11:31 | 51.60273 | 0.42548 | 9882 ft | 265 kts | 232° |
| 2026-04-17 11:31 | 51.59121 | 0.40304 | 9592 ft | 255 kts | 232° |
| 2026-04-17 11:31 | 51.58009 | 0.38140 | 9342 ft | 249 kts | 231° |
| 2026-04-17 11:31 | 51.56939 | 0.36053 | 9277 ft | 239 kts | 232° |
| 2026-04-17 11:32 | 51.55890 | 0.34003 | 9033 ft | 237 kts | 231° |
| 2026-04-17 11:32 | 51.54843 | 0.31960 | 8740 ft | 236 kts | 231° |
| 2026-04-17 11:32 | 51.53797 | 0.29916 | 8444 ft | 236 kts | 231° |
| 2026-04-17 11:32 | 51.52755 | 0.27881 | 8150 ft | 235 kts | 231° |
| 2026-04-17 11:33 | 51.51724 | 0.25870 | 7849 ft | 235 kts | 231° |
| 2026-04-17 11:33 | 51.50692 | 0.23856 | 7568 ft | 233 kts | 231° |
| 2026-04-17 11:33 | 51.49661 | 0.21838 | 7317 ft | 231 kts | 231° |
| 2026-04-17 11:33 | 51.48657 | 0.19868 | 7070 ft | 229 kts | 231° |
| 2026-04-17 11:34 | 51.47660 | 0.17902 | 6816 ft | 227 kts | 233° |
| 2026-04-17 11:34 | 51.47014 | 0.15630 | 6554 ft | 225 kts | 255° |
| 2026-04-17 11:34 | 51.46751 | 0.13188 | 6308 ft | 225 kts | 261° |
| 2026-04-17 11:34 | 51.46604 | 0.10670 | 6056 ft | 225 kts | 264° |
| 2026-04-17 11:35 | 51.46524 | 0.08167 | 5806 ft | 224 kts | 265° |
| 2026-04-17 11:35 | 51.46483 | 0.05631 | 5554 ft | 224 kts | 266° |
| 2026-04-17 11:35 | 51.46468 | 0.03136 | 5303 ft | 223 kts | 267° |
| 2026-04-17 11:35 | 51.46472 | 0.00646 | 5051 ft | 222 kts | 268° |
| 2026-04-17 11:36 | 51.46486 | -0.01840 | 4802 ft | 222 kts | 268° |
| 2026-04-17 11:36 | 51.46500 | -0.04312 | 4552 ft | 221 kts | 268° |
| 2026-04-17 11:36 | 51.46510 | -0.06807 | 4298 ft | 220 kts | 268° |
| 2026-04-17 11:36 | 51.46515 | -0.09259 | 4056 ft | 219 kts | 267° |
| 2026-04-17 11:37 | 51.46518 | -0.11711 | 3965 ft | 221 kts | 268° |
| 2026-04-17 11:37 | 51.46518 | -0.14184 | 3670 ft | 223 kts | 267° |
| 2026-04-17 11:37 | 51.46518 | -0.16681 | 3377 ft | 224 kts | 267° |
| 2026-04-17 11:37 | 51.46518 | -0.19200 | 3080 ft | 225 kts | 267° |
| 2026-04-17 11:38 | 51.46517 | -0.21712 | 2793 ft | 225 kts | 267° |
| 2026-04-17 11:38 | 51.46518 | -0.24215 | 2482 ft | 212 kts | 267° |
| 2026-04-17 11:38 | 51.46521 | -0.26469 | 2221 ft | 195 kts | 266° |
| 2026-04-17 11:38 | 51.46521 | -0.28595 | 1969 ft | 183 kts | 266° |
| 2026-04-17 11:39 | 51.46519 | -0.30601 | 1728 ft | 173 kts | 266° |
| 2026-04-17 11:39 | 51.46517 | -0.32465 | 1501 ft | 162 kts | 266° |
| 2026-04-17 11:39 | 51.46513 | -0.34212 | 1284 ft | 151 kts | 266° |
| 2026-04-17 11:39 | 51.46510 | -0.35873 | 1077 ft | 143 kts | 265° |
| 2026-04-17 11:40 | 51.46507 | -0.37388 | 888 ft | 134 kts | 266° |
| 2026-04-17 11:40 | 51.46503 | -0.38906 | 707 ft | 134 kts | 266° |
| 2026-04-17 11:40 | 51.46498 | -0.40414 | 499 ft | 135 kts | 266° |
| 2026-04-17 11:40 | 51.46498 | -0.41931 | 305 ft | 136 kts | 265° |
| 2026-04-17 11:41 | 51.46495 | -0.43434 | 127 ft | 135 kts | 267° |
| 2026-04-17 11:41 | 51.46490 | -0.44810 | 98 ft | 104 kts | 269° |
| 2026-04-17 11:41 | 51.46489 | -0.45828 | 98 ft | 78 kts | 269° |
| 2026-04-17 11:41 | 51.46484 | -0.46290 | 98 ft | 23 kts | 265° |
| 2026-04-17 11:42 | 51.46450 | -0.46537 | 98 ft | 22 kts | 250° |
| 2026-04-17 11:42 | 51.46408 | -0.46683 | 98 ft | 5 kts | 245° |
| 2026-04-17 11:42 | 51.46390 | -0.46737 | 98 ft | 5 kts | 235° |
| 2026-04-17 11:42 | 51.46358 | -0.46769 | 98 ft | 5 kts | 185° |
| 2026-04-17 11:43 | 51.46327 | -0.46740 | 98 ft | 5 kts | 115° |
| 2026-04-17 11:43 | 51.46323 | -0.46669 | 98 ft | 8 kts | 91° |
| 2026-04-17 11:43 | 51.46322 | -0.46538 | 98 ft | 15 kts | 91° |
| 2026-04-17 11:43 | 51.46321 | -0.46344 | 98 ft | 18 kts | 90° |
| 2026-04-17 11:44 | 51.46322 | -0.46142 | 98 ft | 17 kts | 90° |
| 2026-04-17 11:44 | 51.46323 | -0.45949 | 98 ft | 17 kts | 90° |
| 2026-04-17 11:44 | 51.46323 | -0.45758 | 98 ft | 16 kts | 90° |
| 2026-04-17 11:44 | 51.46302 | -0.45581 | 98 ft | 16 kts | 128° |
| 2026-04-17 11:45 | 51.46214 | -0.45470 | 98 ft | 15 kts | 144° |
| 2026-04-17 11:45 | 51.46122 | -0.45369 | 98 ft | 15 kts | 146° |
| 2026-04-17 11:45 | 51.46022 | -0.45322 | 98 ft | 15 kts | 180° |
| 2026-04-17 11:45 | 51.45916 | -0.45323 | 98 ft | 14 kts | 181° |
| 2026-04-17 11:46 | 51.45812 | -0.45327 | 98 ft | 14 kts | 182° |
| 2026-04-17 11:46 | 51.45735 | -0.45303 | 98 ft | 9 kts | 150° |
| 2026-04-17 11:46 | 51.45689 | -0.45226 | 98 ft | 9 kts | 120° |
| 2026-04-17 11:46 | 51.45675 | -0.45120 | 98 ft | 10 kts | 90° |
| 2026-04-17 11:47 | 51.45683 | -0.45005 | 98 ft | 10 kts | 74° |
| 2026-04-17 11:47 | 51.45706 | -0.44923 | 98 ft | 5 kts | 59° |
| 2026-04-17 11:47 | 51.45734 | -0.44903 | 98 ft | 5 kts | 341° |
| 2026-04-17 11:47 | 51.45771 | -0.44932 | 98 ft | 6 kts | 331° |
| 2026-04-17 11:48 | 51.45784 | -0.44944 | 98 ft | 0 kts | 330° |